Time;durP1;ratioP1;P1;durP2;ratioP2;P2;SDS_P1;SDS_P2;PMS_P1;PMS_P2;Temp;Humidity;BMP_temperature;BMP_pressure;BME280_temperature;BME280_humidity;BME280_pressure;Samples;Min_cycle;Max_cycle;Signal;HPM_P1;HPM_P2
2023/07/20 00:01:47;;;;;;;13.70;9.50;;;;;;;28.85;74.34;99855.39;108072;1288;21988;-60
2023/07/20 00:04:13;;;;;;;12.10;9.40;;;;;;;28.83;73.96;99849.24;108123;1283;22027;-72
2023/07/20 00:06:40;;;;;;;12.50;9.50;;;;;;;28.83;74.11;99840.23;108085;1277;21990;-60
2023/07/20 00:09:06;;;;;;;11.40;10.20;;;;;;;28.83;74.44;99835.13;108071;1283;22028;-60
2023/07/20 00:11:38;;;;;;;12.00;9.60;;;;;;;28.84;74.82;99831.32;108050;1277;22009;-72
2023/07/20 00:14:06;;;;;;;11.40;9.40;;;;;;;28.83;74.75;99834.09;107908;1287;21994;-61
2023/07/20 00:16:33;;;;;;;11.50;9.30;;;;;;;28.80;75.46;99826.96;108128;1287;21988;-60
2023/07/20 00:18:58;;;;;;;10.80;9.10;;;;;;;28.77;74.72;99823.23;108117;1277;21986;-60
2023/07/20 00:21:25;;;;;;;11.20;9.60;;;;;;;28.77;74.66;99828.28;108088;1287;21991;-60
2023/07/20 00:23:50;;;;;;;10.60;9.00;;;;;;;28.80;75.16;99828.05;108113;1277;21998;-71
2023/07/20 00:26:16;;;;;;;12.90;9.10;;;;;;;28.79;74.58;99826.65;108081;1277;21987;-71
2023/07/20 00:28:43;;;;;;;11.20;9.20;;;;;;;28.82;74.81;99820.42;108125;1284;21986;-62
2023/07/20 00:31:08;;;;;;;10.70;9.30;;;;;;;28.85;74.64;99818.70;108141;1277;21985;-71
2023/07/20 00:33:34;;;;;;;9.80;8.80;;;;;;;28.85;74.78;99820.09;108085;1282;21999;-71
2023/07/20 00:36:00;;;;;;;11.50;8.90;;;;;;;28.83;74.49;99821.61;108153;1288;21994;-71
2023/07/20 00:38:26;;;;;;;14.40;9.90;;;;;;;28.81;74.53;99814.45;108067;1283;21989;-61
2023/07/20 00:40:52;;;;;;;11.60;9.20;;;;;;;28.77;74.84;99806.12;108080;1277;22465;-61
2023/07/20 00:43:19;;;;;;;10.60;8.50;;;;;;;28.71;75.20;99805.81;107925;1287;21992;-71
2023/07/20 00:45:45;;;;;;;9.00;7.90;;;;;;;28.67;74.42;99801.70;108039;1287;22646;-72
2023/07/20 00:48:11;;;;;;;9.50;8.00;;;;;;;28.68;74.59;99801.98;107930;1288;21986;-71
2023/07/20 00:50:36;;;;;;;9.60;8.00;;;;;;;28.69;75.13;99807.27;108077;1286;21996;-60
2023/07/20 00:53:04;;;;;;;11.80;9.20;;;;;;;28.68;75.16;99806.66;107893;1284;21989;-70
2023/07/20 00:55:30;;;;;;;10.90;7.80;;;;;;;28.65;75.41;99809.06;108174;1288;21993;-70
2023/07/20 00:57:56;;;;;;;10.10;8.90;;;;;;;28.61;75.42;99808.36;107899;1288;21995;-60
2023/07/20 01:00:23;;;;;;;10.90;9.50;;;;;;;28.59;75.75;99802.08;107940;1284;21988;-70
2023/07/20 01:02:48;;;;;;;10.50;9.10;;;;;;;28.56;75.64;99798.72;108123;1277;21991;-71
2023/07/20 01:05:16;;;;;;;11.10;9.30;;;;;;;28.54;76.70;99800.73;108051;1274;21991;-70
2023/07/20 01:08:52;;;;;;;11.60;9.40;;;;;;;28.53;75.78;99798.36;108102;1287;21986;-71
2023/07/20 01:11:31;;;;;;;13.00;10.40;;;;;;;28.53;77.09;99791.30;107215;1297;22007;-70
2023/07/20 01:13:57;;;;;;;13.30;9.50;;;;;;;28.49;77.06;99793.94;107841;1289;24354;-71
2023/07/20 01:16:24;;;;;;;10.70;9.20;;;;;;;28.50;76.65;99799.48;107834;1283;22372;-70
2023/07/20 01:18:50;;;;;;;11.30;9.40;;;;;;;28.52;77.68;99799.69;108012;1287;21993;-60
2023/07/20 01:21:23;;;;;;;11.80;8.60;;;;;;;28.50;77.95;99799.70;107972;1284;21996;-70
2023/07/20 01:24:16;;;;;;;8.90;7.70;;;;;;;28.50;77.91;99795.73;108013;1283;23053;-59
2023/07/20 01:27:13;;;;;;;10.60;7.70;;;;;;;28.51;78.89;99789.45;108127;1288;21999;-59
2023/07/20 01:30:08;;;;;;;8.60;6.60;;;;;;;28.53;78.91;99780.85;107946;1287;22002;-68
2023/07/20 01:32:34;;;;;;;8.70;6.60;;;;;;;28.55;79.15;99781.21;108135;1283;22016;-61
2023/07/20 01:35:00;;;;;;;9.60;6.80;;;;;;;28.56;81.36;99785.39;107802;1289;22052;-69
2023/07/20 01:37:27;;;;;;;11.30;6.60;;;;;;;28.56;80.92;99781.04;107700;1283;21993;-59
2023/07/20 01:39:55;;;;;;;8.00;7.20;;;;;;;28.57;80.73;99779.86;107887;1281;22000;-60
2023/07/20 01:42:23;;;;;;;9.70;6.90;;;;;;;28.57;80.57;99775.88;107855;1289;22260;-60
2023/07/20 01:44:51;;;;;;;8.80;7.30;;;;;;;28.56;80.18;99771.81;107893;1289;21997;-65
2023/07/20 01:47:16;;;;;;;7.70;6.00;;;;;;;28.56;79.66;99775.82;109116;1289;22256;-66
2023/07/20 01:49:43;;;;;;;8.10;6.30;;;;;;;28.57;79.85;99779.17;107985;1278;22000;-69
2023/07/20 01:52:08;;;;;;;7.10;6.40;;;;;;;28.57;79.88;99778.23;107980;1281;21990;-59
2023/07/20 01:54:35;;;;;;;7.40;6.30;;;;;;;28.58;79.71;99782.52;107980;1287;22000;-68
2023/07/20 01:57:00;;;;;;;9.20;6.40;;;;;;;28.57;79.67;99779.66;107955;1289;22038;-69
2023/07/20 01:59:26;;;;;;;6.30;5.30;;;;;;;28.58;79.84;99781.02;107995;1283;22027;-69
2023/07/20 02:01:52;;;;;;;7.40;5.50;;;;;;;28.59;80.11;99788.38;107859;1289;21990;-60
2023/07/20 02:04:18;;;;;;;7.90;5.40;;;;;;;28.59;80.22;99787.26;107968;1289;21981;-68
2023/07/20 02:06:45;;;;;;;6.10;5.50;;;;;;;28.60;80.13;99781.52;107993;1287;22049;-59
2023/07/20 02:09:11;;;;;;;8.50;5.40;;;;;;;28.62;80.20;99773.29;107929;1283;21985;-68
2023/07/20 02:11:36;;;;;;;6.40;5.80;;;;;;;28.62;80.54;99766.41;107966;1289;21990;-60
2023/07/20 02:14:02;;;;;;;7.00;5.60;;;;;;;28.60;80.42;99760.08;107944;1289;21996;-61
2023/07/20 02:16:28;;;;;;;10.70;5.40;;;;;;;28.59;81.13;99758.40;107947;1287;21992;-69
2023/07/20 02:18:56;;;;;;;11.30;5.40;;;;;;;28.60;81.38;99756.45;107997;1285;22013;-69
2023/07/20 02:21:22;;;;;;;8.20;5.60;;;;;;;28.62;80.82;99756.27;107892;1289;21989;-59
2023/07/20 02:23:48;;;;;;;6.40;4.90;;;;;;;28.65;80.55;99750.39;107974;1287;22006;-65
2023/07/20 02:26:14;;;;;;;7.90;5.70;;;;;;;28.68;81.47;99743.11;107954;1278;22027;-60
2023/07/20 02:28:41;;;;;;;7.30;5.50;;;;;;;28.65;81.98;99738.47;107947;1281;21990;-68
2023/07/20 02:31:07;;;;;;;9.50;5.60;;;;;;;28.61;81.30;99735.64;107990;1287;21999;-68
2023/07/20 02:33:32;;;;;;;10.90;5.40;;;;;;;28.60;80.56;99733.02;107926;1281;22000;-60
2023/07/20 02:35:58;;;;;;;8.30;5.40;;;;;;;28.60;80.31;99730.50;107926;1289;22011;-59
2023/07/20 02:38:24;;;;;;;10.20;5.50;;;;;;;28.61;80.57;99729.09;107986;1283;22002;-67
2023/07/20 02:40:50;;;;;;;8.30;5.00;;;;;;;28.62;80.72;99729.25;108037;1288;21999;-59
2023/07/20 02:43:16;;;;;;;7.00;5.30;;;;;;;28.60;81.14;99728.38;108076;1286;21995;-67
2023/07/20 02:45:44;;;;;;;10.00;5.10;;;;;;;28.57;80.68;99735.16;108072;1288;21995;-60
2023/07/20 02:48:10;;;;;;;12.20;5.10;;;;;;;28.54;83.23;99739.41;108068;1287;23828;-60
2023/07/20 02:50:36;;;;;;;8.50;4.70;;;;;;;28.49;82.47;99738.81;108068;1288;22012;-60
2023/07/20 02:53:04;;;;;;;8.80;4.80;;;;;;;28.47;81.78;99739.33;108064;1284;21995;-61
2023/07/20 02:55:30;;;;;;;6.90;4.90;;;;;;;28.48;82.15;99735.61;108307;1283;21992;-69
2023/07/20 02:57:55;;;;;;;6.40;4.40;;;;;;;28.50;83.67;99735.10;108100;1277;21990;-60
2023/07/20 03:00:23;;;;;;;11.20;4.70;;;;;;;28.49;84.94;99740.06;108147;1277;21992;-60
2023/07/20 03:02:52;;;;;;;7.80;4.60;;;;;;;28.48;83.97;99746.80;108183;1288;21989;-61
2023/07/20 03:05:18;;;;;;;5.60;4.20;;;;;;;28.50;85.13;99757.95;108117;1277;21991;-61
2023/07/20 03:07:44;;;;;;;8.00;5.00;;;;;;;28.51;87.07;99761.52;108133;1277;22068;-69
2023/07/20 03:10:10;;;;;;;7.60;5.10;;;;;;;28.48;87.53;99758.16;108206;1284;21986;-69
2023/07/20 03:12:36;;;;;;;8.00;4.90;;;;;;;28.47;87.13;99754.31;108175;1289;22036;-69
2023/07/20 03:15:02;;;;;;;6.40;4.40;;;;;;;28.48;87.03;99750.59;108168;1286;22029;-60
2023/07/20 03:17:29;;;;;;;8.90;4.70;;;;;;;28.51;87.30;99743.79;108015;1288;23721;-61
2023/07/20 03:19:55;;;;;;;6.60;5.20;;;;;;;28.55;87.64;99740.04;108230;1288;22025;-69
2023/07/20 03:22:21;;;;;;;7.30;5.40;;;;;;;28.58;87.25;99737.52;108180;1287;21996;-60
2023/07/20 03:24:48;;;;;;;8.20;5.70;;;;;;;28.61;87.08;99738.51;108127;1287;22000;-60
2023/07/20 03:27:14;;;;;;;6.80;5.30;;;;;;;28.64;86.81;99739.14;108087;1287;23791;-61
2023/07/20 03:29:40;;;;;;;9.80;5.50;;;;;;;28.67;89.12;99738.52;108141;1288;23728;-61
2023/07/20 03:32:06;;;;;;;6.60;5.10;;;;;;;28.68;90.49;99738.64;108169;1284;22027;-69
2023/07/20 03:34:33;;;;;;;7.30;5.40;;;;;;;28.68;90.44;99738.64;108228;1284;21996;-69
2023/07/20 03:37:00;;;;;;;8.40;5.70;;;;;;;28.67;92.05;99738.18;108206;1288;22009;-69
2023/07/20 03:39:26;;;;;;;9.50;5.70;;;;;;;28.67;91.14;99732.73;108232;1287;22002;-68
2023/07/20 03:41:51;;;;;;;7.80;5.30;;;;;;;28.70;89.19;99726.27;108302;1283;21960;-68
2023/07/20 03:44:17;;;;;;;7.90;5.30;;;;;;;28.75;91.49;99724.15;108110;1283;21990;-60
2023/07/20 03:46:43;;;;;;;7.40;5.90;;;;;;;28.80;91.20;99726.98;108055;1280;21998;-69
2023/07/20 03:49:10;;;;;;;7.70;5.50;;;;;;;28.85;89.71;99728.65;108191;1284;22002;-60
2023/07/20 03:51:37;;;;;;;8.90;6.20;;;;;;;28.90;90.58;99729.76;108201;1277;22949;-70
2023/07/20 03:54:03;;;;;;;8.50;5.80;;;;;;;28.93;95.52;99731.81;108203;1284;21999;-61
2023/07/20 03:56:29;;;;;;;11.90;6.70;;;;;;;28.95;94.49;99731.36;108169;1277;21984;-70
2023/07/20 03:58:54;;;;;;;7.40;5.40;;;;;;;29.00;92.02;99735.06;108145;1284;21987;-60
2023/07/20 04:01:20;;;;;;;7.80;5.30;;;;;;;29.03;93.21;99732.39;108095;1287;21990;-60
2023/07/20 04:03:46;;;;;;;9.80;5.40;;;;;;;29.08;91.30;99732.50;108094;1287;21987;-60
2023/07/20 04:06:14;;;;;;;9.10;5.10;;;;;;;29.15;90.84;99737.39;108149;1285;23011;-70
2023/07/20 04:08:39;;;;;;;11.50;5.20;;;;;;;29.21;90.19;99734.20;108122;1287;21995;-60
2023/07/20 04:11:05;;;;;;;9.90;5.30;;;;;;;29.30;90.54;99737.80;108223;1277;21990;-69
2023/07/20 04:13:34;;;;;;;10.30;5.40;;;;;;;29.40;92.81;99742.42;108130;1284;22302;-62
2023/07/20 04:16:00;;;;;;;9.00;5.20;;;;;;;29.48;92.25;99747.40;108176;1287;22044;-60
2023/07/20 04:18:25;;;;;;;8.00;4.80;;;;;;;29.54;91.25;99749.72;108146;1281;21997;-71
2023/07/20 04:20:51;;;;;;;6.00;4.30;;;;;;;29.60;91.32;99751.79;108238;1284;21995;-62
2023/07/20 04:23:17;;;;;;;7.10;4.30;;;;;;;29.66;91.83;99753.73;108200;1284;21990;-71
2023/07/20 04:25:43;;;;;;;7.10;4.50;;;;;;;29.73;93.11;99759.00;107929;1288;21990;-61
2023/07/20 04:28:09;;;;;;;7.60;4.60;;;;;;;29.80;92.58;99758.23;108174;1287;21994;-72
2023/07/20 04:30:39;;;;;;;8.70;4.50;;;;;;;29.88;92.47;99759.60;108067;1288;22461;-61
2023/07/20 04:33:05;;;;;;;8.20;4.20;;;;;;;29.96;92.04;99768.59;108134;1283;24304;-71
2023/07/20 04:35:47;;;;;;;9.20;4.30;;;;;;;30.02;92.21;99766.92;108117;1284;21997;-62
2023/07/20 04:38:15;;;;;;;6.60;4.20;;;;;;;30.06;92.46;99760.11;108101;1283;21989;-62
2023/07/20 04:40:44;;;;;;;9.40;4.20;;;;;;;30.08;91.84;99755.59;108139;1277;22027;-61
2023/07/20 04:43:10;;;;;;;6.90;4.80;;;;;;;30.08;92.74;99755.20;108135;1284;21999;-61
2023/07/20 04:45:35;;;;;;;8.90;4.10;;;;;;;30.10;90.46;99751.59;108012;1288;23705;-71
2023/07/20 04:48:01;;;;;;;7.00;4.20;;;;;;;30.14;90.28;99749.71;108048;1277;22030;-61
2023/07/20 04:50:26;;;;;;;8.60;4.30;;;;;;;30.22;90.66;99746.50;108070;1288;21970;-71
2023/07/20 04:52:53;;;;;;;8.50;4.30;;;;;;;30.29;91.28;99739.27;108090;1277;21999;-72
2023/07/20 04:55:19;;;;;;;6.80;4.00;;;;;;;30.35;91.95;99738.45;108080;1283;21992;-61
2023/07/20 04:57:44;;;;;;;7.70;4.30;;;;;;;30.42;92.17;99738.64;108096;1284;21997;-61
2023/07/20 05:00:13;;;;;;;6.60;4.00;;;;;;;30.51;91.08;99731.34;108095;1287;22006;-72
2023/07/20 05:02:38;;;;;;;8.90;4.20;;;;;;;30.60;89.80;99728.95;108154;1288;21998;-72
2023/07/20 05:05:07;;;;;;;11.60;6.00;;;;;;;30.67;88.68;99723.03;108110;1277;22026;-72
2023/07/20 05:07:33;;;;;;;10.50;5.20;;;;;;;30.70;88.37;99721.91;108078;1287;21995;-61
2023/07/20 05:09:59;;;;;;;7.30;4.10;;;;;;;30.70;88.43;99720.08;108026;1284;22085;-61
2023/07/20 05:12:24;;;;;;;6.80;4.30;;;;;;;30.70;88.21;99716.08;108079;1284;21986;-70
2023/07/20 05:14:51;;;;;;;8.40;4.10;;;;;;;30.79;88.46;99713.75;108055;1287;22177;-71
2023/07/20 05:17:16;;;;;;;11.80;5.60;;;;;;;30.91;88.66;99712.82;108067;1284;21959;-72
2023/07/20 05:19:43;;;;;;;10.50;5.10;;;;;;;31.00;87.40;99713.11;108225;1283;21992;-71
2023/07/20 05:22:09;;;;;;;12.20;5.30;;;;;;;31.06;86.60;99713.38;108138;1277;21984;-60
2023/07/20 05:24:35;;;;;;;10.10;5.40;;;;;;;31.11;86.27;99713.21;108124;1277;22001;-71
2023/07/20 05:27:00;;;;;;;10.00;5.40;;;;;;;31.16;86.49;99714.59;108068;1284;21990;-61
2023/07/20 05:29:26;;;;;;;9.70;5.00;;;;;;;31.25;85.66;99714.41;108106;1288;21992;-71
2023/07/20 05:31:52;;;;;;;9.50;5.60;;;;;;;31.33;85.06;99715.31;108092;1278;21990;-62
2023/07/20 05:34:17;;;;;;;8.40;4.90;;;;;;;31.41;84.79;99715.69;108267;1280;21993;-71
2023/07/20 05:36:44;;;;;;;7.70;5.60;;;;;;;31.53;83.93;99713.77;107983;1287;21992;-61
2023/07/20 05:39:09;;;;;;;7.60;5.10;;;;;;;31.67;83.37;99708.65;108112;1287;21991;-61
2023/07/20 05:41:35;;;;;;;7.10;4.10;;;;;;;31.80;82.57;99708.86;108153;1284;21990;-72
2023/07/20 05:44:00;;;;;;;9.30;4.70;;;;;;;31.92;81.76;99708.11;108186;1287;21990;-70
2023/07/20 05:46:26;;;;;;;7.50;4.30;;;;;;;32.03;81.28;99711.33;108126;1277;21989;-72
2023/07/20 05:48:51;;;;;;;5.70;4.10;;;;;;;32.12;79.98;99709.13;108179;1277;21999;-61
2023/07/20 05:51:17;;;;;;;6.40;4.60;;;;;;;32.18;79.35;99712.91;108065;1287;22261;-65
2023/07/20 05:53:43;;;;;;;8.00;4.50;;;;;;;32.20;77.80;99714.00;108060;1284;21993;-61
2023/07/20 05:56:11;;;;;;;7.10;4.70;;;;;;;32.22;77.25;99715.26;107929;1288;22024;-71
2023/07/20 05:58:37;;;;;;;6.90;4.80;;;;;;;32.19;76.13;99718.80;108129;1287;21993;-62
2023/07/20 06:01:05;;;;;;;13.00;5.20;;;;;;;32.14;75.62;99718.65;107989;1281;21999;-61
2023/07/20 06:03:31;;;;;;;6.90;4.70;;;;;;;32.12;75.38;99717.39;108117;1288;21991;-62
2023/07/20 06:06:01;;;;;;;7.40;5.20;;;;;;;32.15;74.84;99711.46;108041;1288;22913;-61
2023/07/20 06:08:29;;;;;;;8.50;5.10;;;;;;;32.17;74.76;99709.80;108309;1284;21986;-61
2023/07/20 06:10:54;;;;;;;5.70;4.20;;;;;;;32.20;74.28;99708.55;108116;1276;22854;-62
2023/07/20 06:13:20;;;;;;;8.00;5.00;;;;;;;32.20;74.22;99709.06;108121;1288;21996;-70
2023/07/20 06:15:47;;;;;;;6.20;4.60;;;;;;;32.26;74.18;99706.63;108094;1278;21996;-71
2023/07/20 06:18:13;;;;;;;7.40;4.80;;;;;;;32.31;73.92;99703.49;108169;1277;21987;-62
2023/07/20 06:20:39;;;;;;;6.90;4.70;;;;;;;32.38;73.73;99704.65;108196;1287;24329;-61
2023/07/20 06:23:05;;;;;;;7.50;5.00;;;;;;;32.49;73.85;99704.23;108122;1287;21990;-69
2023/07/20 06:25:30;;;;;;;5.80;4.60;;;;;;;32.65;73.97;99704.09;108073;1284;21989;-69
2023/07/20 06:27:57;;;;;;;5.60;4.70;;;;;;;32.89;74.35;99704.64;108078;1284;22033;-62
2023/07/20 06:30:24;;;;;;;11.60;4.80;;;;;;;33.18;73.95;99704.01;107985;1284;21987;-61
2023/07/20 06:32:51;;;;;;;5.90;4.70;;;;;;;33.43;73.54;99703.75;108183;1287;21988;-69
2023/07/20 06:35:17;;;;;;;9.40;5.80;;;;;;;33.70;72.66;99704.91;108094;1287;21992;-69
2023/07/20 06:37:43;;;;;;;8.10;5.70;;;;;;;33.90;71.96;99700.23;108175;1288;22023;-69
2023/07/20 06:40:10;;;;;;;6.50;5.50;;;;;;;34.18;72.79;99693.44;108024;1283;21989;-70
2023/07/20 06:42:36;;;;;;;6.60;4.70;;;;;;;34.54;72.84;99690.95;108130;1284;22032;-62
2023/07/20 06:45:03;;;;;;;9.30;5.50;;;;;;;34.97;72.00;99690.87;108184;1284;21995;-70
2023/07/20 06:47:28;;;;;;;6.80;5.50;;;;;;;35.30;70.44;99690.61;108144;1286;23752;-70
2023/07/20 06:49:54;;;;;;;7.80;5.10;;;;;;;35.56;69.68;99688.52;108075;1284;21990;-70
2023/07/20 06:52:20;;;;;;;7.80;4.80;;;;;;;35.83;68.63;99689.31;108126;1285;21988;-63
2023/07/20 06:54:46;;;;;;;7.50;5.70;;;;;;;36.06;67.14;99690.60;108157;1289;22030;-62
2023/07/20 06:57:11;;;;;;;13.10;5.40;;;;;;;36.24;65.99;99687.27;108188;1288;22296;-61
2023/07/20 06:59:37;;;;;;;6.50;5.20;;;;;;;36.36;65.80;99685.98;108089;1284;22001;-61
2023/07/20 07:02:03;;;;;;;6.20;5.30;;;;;;;36.61;66.44;99684.46;107974;1278;156941;-62
2023/07/20 07:04:29;;;;;;;7.90;5.10;;;;;;;36.93;65.36;99689.72;108114;1287;21987;-62
2023/07/20 07:06:55;;;;;;;5.80;5.20;;;;;;;37.17;64.07;99693.67;108083;1277;21998;-69
2023/07/20 07:09:20;;;;;;;6.90;4.70;;;;;;;37.38;63.54;99696.09;108070;1278;21995;-68
2023/07/20 07:11:46;;;;;;;7.00;5.00;;;;;;;37.49;62.02;99700.70;108077;1289;22021;-69
2023/07/20 07:14:12;;;;;;;8.90;5.40;;;;;;;37.51;59.70;99700.29;108072;1289;21991;-68
2023/07/20 07:16:38;;;;;;;6.60;4.80;;;;;;;37.45;59.08;99702.81;108058;1285;21993;-61
2023/07/20 07:19:04;;;;;;;8.30;5.10;;;;;;;37.35;58.57;99700.68;108055;1287;22000;-62
2023/07/20 07:21:31;;;;;;;6.50;5.20;;;;;;;37.32;59.62;99699.96;108126;1284;21992;-61
2023/07/20 07:23:59;;;;;;;7.50;4.80;;;;;;;37.48;60.46;99698.36;108115;1284;22062;-62
2023/07/20 07:26:24;;;;;;;6.50;5.10;;;;;;;37.76;60.02;99696.05;108072;1284;21997;-71
2023/07/20 07:28:50;;;;;;;6.70;4.50;;;;;;;37.95;58.82;99692.19;108064;1284;21990;-62
2023/07/20 07:31:16;;;;;;;7.30;4.90;;;;;;;38.07;58.19;99693.41;108049;1289;21990;-62
2023/07/20 07:33:42;;;;;;;7.90;4.70;;;;;;;38.12;57.66;99690.70;107895;1284;21992;-70
2023/07/20 07:36:08;;;;;;;5.50;4.70;;;;;;;38.19;57.75;99686.35;108046;1284;22200;-69
2023/07/20 07:38:34;;;;;;;7.90;4.40;;;;;;;38.31;57.22;99684.52;108057;1280;21997;-63
2023/07/20 07:41:00;;;;;;;6.80;4.90;;;;;;;38.48;57.28;99685.65;108040;1288;21990;-62
2023/07/20 07:43:26;;;;;;;9.10;4.40;;;;;;;38.69;56.96;99683.24;108071;1277;21992;-70
2023/07/20 07:45:53;;;;;;;7.20;4.80;;;;;;;38.91;56.74;99684.09;108060;1284;21995;-70
2023/07/20 07:48:21;;;;;;;6.30;4.40;;;;;;;39.11;55.34;99678.89;108062;1288;22005;-62
2023/07/20 07:50:47;;;;;;;7.60;4.30;;;;;;;39.16;55.01;99672.25;108053;1284;21990;-62
2023/07/20 07:53:12;;;;;;;7.00;4.50;;;;;;;39.28;55.13;99669.61;108074;1278;21992;-70
2023/07/20 07:55:38;;;;;;;5.90;4.40;;;;;;;39.31;54.04;99670.30;108132;1284;21998;-63
2023/07/20 07:58:04;;;;;;;7.20;4.50;;;;;;;39.35;53.67;99675.08;108053;1285;24037;-70
2023/07/20 08:00:32;;;;;;;7.30;4.70;;;;;;;39.41;53.19;99676.92;108069;1287;21992;-64
2023/07/20 08:02:58;;;;;;;8.10;4.00;;;;;;;39.63;53.80;99675.69;108097;1288;22032;-69
2023/07/20 08:05:24;;;;;;;4.90;4.00;;;;;;;39.96;53.01;99670.56;108074;1288;24015;-70
2023/07/20 08:07:50;;;;;;;6.30;4.30;;;;;;;40.24;52.80;99672.35;108057;1288;21986;-65
2023/07/20 08:10:16;;;;;;;8.30;4.10;;;;;;;40.56;51.88;99668.41;108051;1288;21988;-70
2023/07/20 08:12:43;;;;;;;6.00;3.80;;;;;;;40.77;49.26;99665.69;108059;1285;21998;-63
2023/07/20 08:15:11;;;;;;;5.90;3.90;;;;;;;40.77;47.37;99661.89;108205;1288;22026;-71
2023/07/20 08:17:37;;;;;;;7.20;4.40;;;;;;;40.72;48.92;99667.21;108110;1288;21989;-62
2023/07/20 08:20:03;;;;;;;8.00;3.70;;;;;;;40.91;49.23;99668.45;108155;1287;21999;-62
2023/07/20 08:22:30;;;;;;;6.20;4.30;;;;;;;41.22;49.26;99665.39;108184;1284;21992;-62
2023/07/20 08:24:56;;;;;;;7.10;4.00;;;;;;;41.62;49.35;99663.55;108107;1288;22036;-63
2023/07/20 08:27:21;;;;;;;7.90;4.10;;;;;;;42.01;48.79;99665.73;108144;1284;22049;-69
2023/07/20 08:29:49;;;;;;;7.30;4.00;;;;;;;42.31;48.06;99666.71;108097;1275;21996;-62
2023/07/20 08:32:15;;;;;;;10.60;3.60;;;;;;;42.55;47.45;99659.95;108148;1288;21988;-62
2023/07/20 08:34:41;;;;;;;5.50;4.10;;;;;;;42.74;45.82;99659.00;108082;1288;22025;-62
2023/07/20 08:37:09;;;;;;;6.90;4.00;;;;;;;42.56;41.76;99663.36;108116;1287;22255;-62
2023/07/20 08:39:37;;;;;;;9.50;3.80;;;;;;;42.29;44.04;99666.84;108079;1288;21990;-69
2023/07/20 08:42:05;;;;;;;7.50;4.00;;;;;;;42.40;44.64;99665.63;107959;1289;23055;-62
2023/07/20 08:44:35;;;;;;;6.50;4.00;;;;;;;42.51;43.47;99669.10;107868;1288;21992;-69
2023/07/20 08:47:03;;;;;;;6.00;3.70;;;;;;;42.27;42.11;99670.63;107938;1284;22000;-63
2023/07/20 08:49:33;;;;;;;7.80;4.00;;;;;;;41.86;41.74;99668.45;108019;1288;21996;-62
2023/07/20 08:51:59;;;;;;;6.00;4.10;;;;;;;41.75;42.67;99666.10;107919;1289;22109;-62
2023/07/20 08:54:32;;;;;;;5.90;3.50;;;;;;;41.77;43.06;99667.20;108250;1289;21987;-69
2023/07/20 08:56:59;;;;;;;6.30;3.70;;;;;;;41.92;42.94;99667.64;107957;1283;21996;-62
2023/07/20 08:59:25;;;;;;;11.20;4.00;;;;;;;42.19;43.49;99669.57;107900;1284;22236;-70
2023/07/20 09:01:54;;;;;;;7.30;3.70;;;;;;;42.32;42.43;99673.64;107916;1289;21996;-70
2023/07/20 09:04:19;;;;;;;5.40;3.80;;;;;;;42.31;41.94;99671.80;107831;1289;22747;-70
2023/07/20 09:06:45;;;;;;;5.60;3.50;;;;;;;42.42;40.89;99669.09;107926;1289;23616;-70
2023/07/20 09:09:11;;;;;;;5.40;3.80;;;;;;;42.42;40.90;99672.96;107804;1289;23612;-69
2023/07/20 09:11:36;;;;;;;5.20;3.70;;;;;;;42.54;41.49;99672.14;107964;1287;22009;-69
2023/07/20 09:14:08;;;;;;;5.20;3.80;;;;;;;42.80;41.64;99678.66;107949;1287;21995;-69
2023/07/20 09:16:55;;;;;;;5.20;3.70;;;;;;;42.98;40.75;99679.14;107936;1289;21990;-70
2023/07/20 09:19:22;;;;;;;6.80;3.60;;;;;;;43.01;40.56;99680.34;108006;1289;22001;-70
2023/07/20 09:21:51;;;;;;;5.40;3.80;;;;;;;43.05;40.71;99679.08;107929;1288;22001;-68
2023/07/20 09:24:20;;;;;;;7.00;3.70;;;;;;;43.14;39.53;99678.21;108007;1282;22011;-69
2023/07/20 09:26:50;;;;;;;7.80;3.70;;;;;;;43.31;39.96;99674.08;108012;1289;21997;-63
2023/07/20 09:29:19;;;;;;;6.90;3.50;;;;;;;43.51;39.63;99671.73;108102;1288;22083;-62
2023/07/20 09:32:04;;;;;;;5.20;3.80;;;;;;;43.69;39.22;99672.82;108131;1277;22025;-69
2023/07/20 09:34:31;;;;;;;5.90;4.20;;;;;;;43.72;37.52;99670.21;108088;1287;22000;-69
2023/07/20 09:37:00;;;;;;;4.30;3.90;;;;;;;43.69;36.94;99669.01;108066;1277;22634;-70
2023/07/20 09:39:27;;;;;;;7.80;3.40;;;;;;;43.80;37.84;99670.09;108048;1287;21999;-63
2023/07/20 09:41:53;;;;;;;7.60;3.50;;;;;;;43.97;37.66;99665.42;108026;1284;22000;-69
2023/07/20 09:44:19;;;;;;;5.60;3.40;;;;;;;44.07;37.61;99666.06;108062;1284;22170;-69
2023/07/20 09:46:46;;;;;;;5.60;3.40;;;;;;;44.21;37.40;99663.13;107991;1281;21994;-63
2023/07/20 09:49:12;;;;;;;7.80;4.10;;;;;;;44.29;36.26;99660.77;108097;1287;21990;-62
2023/07/20 09:51:39;;;;;;;7.90;3.90;;;;;;;44.05;35.38;99661.88;108050;1284;21988;-61
2023/07/20 09:54:05;;;;;;;13.30;4.00;;;;;;;43.94;36.06;99662.45;107946;1289;23719;-62
2023/07/20 09:56:31;;;;;;;8.80;3.80;;;;;;;43.97;36.47;99657.99;107785;1280;22009;-68
2023/07/20 09:58:57;;;;;;;5.40;3.30;;;;;;;44.17;36.64;99654.75;107778;1283;22031;-67
2023/07/20 10:01:22;;;;;;;5.00;3.40;;;;;;;44.42;36.50;99656.81;107949;1281;21962;-66
2023/07/20 10:03:48;;;;;;;4.30;3.20;;;;;;;44.73;36.20;99655.90;108020;1289;21990;-60
2023/07/20 10:06:15;;;;;;;6.30;3.20;;;;;;;45.00;35.95;99662.77;107862;1283;21990;-65
2023/07/20 10:08:42;;;;;;;8.50;3.40;;;;;;;45.23;35.35;99656.00;107906;1287;23616;-62
2023/07/20 10:11:08;;;;;;;5.50;3.90;;;;;;;45.53;35.13;99654.02;107718;1281;22000;-67
2023/07/20 10:13:37;;;;;;;6.80;3.30;;;;;;;45.76;35.30;99654.54;109940;1289;21914;-68
2023/07/20 10:16:14;;;;;;;8.20;3.70;;;;;;;45.92;34.93;99650.48;109984;1281;21894;-63
2023/07/20 10:18:48;;;;;;;5.00;3.50;;;;;;;45.91;34.18;99645.42;109774;1289;21996;-68
2023/07/20 10:21:14;;;;;;;6.20;3.20;;;;;;;45.62;33.61;99649.52;107979;1281;21996;-62
2023/07/20 10:23:40;;;;;;;6.20;3.40;;;;;;;45.27;33.80;99650.40;107811;1289;22002;-62
2023/07/20 10:26:05;;;;;;;4.90;3.40;;;;;;;44.92;33.57;99649.36;107858;1289;22026;-68
2023/07/20 10:28:31;;;;;;;4.10;3.50;;;;;;;44.52;33.25;99644.21;107819;1287;21996;-62
2023/07/20 10:30:56;;;;;;;6.40;3.20;;;;;;;44.04;33.45;99643.57;107826;1281;21995;-62
2023/07/20 10:33:23;;;;;;;5.90;3.60;;;;;;;43.70;33.84;99643.17;107866;1289;21996;-62
2023/07/20 10:36:00;;;;;;;5.10;3.30;;;;;;;43.59;33.84;99644.46;108058;1278;21960;-68
2023/07/20 10:38:45;;;;;;;5.10;3.00;;;;;;;43.51;33.90;99641.92;108051;1289;21992;-68
2023/07/20 10:41:17;;;;;;;6.30;3.20;;;;;;;43.55;34.22;99640.15;108074;1289;23651;-61
2023/07/20 10:43:44;;;;;;;5.70;3.30;;;;;;;43.68;34.16;99634.86;108058;1289;22108;-67
2023/07/20 10:46:11;;;;;;;4.90;3.20;;;;;;;43.86;34.25;99629.48;108055;1281;21985;-62
2023/07/20 10:48:58;;;;;;;4.50;3.10;;;;;;;44.19;33.97;99625.39;108005;1277;22034;-62
2023/07/20 10:51:23;;;;;;;4.80;2.80;;;;;;;44.66;33.74;99621.38;108001;1288;21996;-68
2023/07/20 10:53:49;;;;;;;4.20;2.90;;;;;;;45.11;33.67;99616.46;108033;1289;22000;-62
2023/07/20 10:56:19;;;;;;;7.20;3.30;;;;;;;45.49;33.33;99613.61;108102;1280;21990;-68
2023/07/20 10:58:45;;;;;;;6.00;3.00;;;;;;;45.80;32.82;99608.20;108073;1289;21993;-62
2023/07/20 11:01:17;;;;;;;4.40;3.10;;;;;;;46.00;32.70;99604.72;107986;1284;21992;-62
2023/07/20 11:03:44;;;;;;;5.30;3.30;;;;;;;46.26;32.88;99603.23;107955;1289;22001;-67
2023/07/20 11:06:25;;;;;;;9.30;3.30;;;;;;;46.55;32.18;99602.44;108100;1284;21994;-60
2023/07/20 11:09:02;;;;;;;6.00;3.20;;;;;;;46.62;31.43;99598.77;108055;1289;21991;-62
2023/07/20 11:11:33;;;;;;;11.10;3.50;;;;;;;46.72;31.83;99596.48;108076;1287;22003;-67
2023/07/20 11:14:00;;;;;;;7.30;3.30;;;;;;;46.76;30.76;99590.71;108069;1280;22186;-64
2023/07/20 11:16:43;;;;;;;9.70;3.00;;;;;;;46.69;31.11;99594.21;108045;1285;21993;-62
2023/07/20 11:19:24;;;;;;;5.10;3.20;;;;;;;46.79;30.94;99589.48;108046;1288;21987;-62
2023/07/20 11:21:52;;;;;;;5.90;3.70;;;;;;;46.79;30.47;99587.14;108056;1287;22163;-67
2023/07/20 11:24:18;;;;;;;5.30;3.20;;;;;;;46.71;30.66;99586.30;108127;1289;22048;-62
2023/07/20 11:26:51;;;;;;;9.80;4.00;;;;;;;46.59;30.40;99585.04;108121;1284;22004;-67